Time;durP1;ratioP1;P1;durP2;ratioP2;P2;SDS_P1;SDS_P2;PMS_P1;PMS_P2;Temp;Humidity;BMP_temperature;BMP_pressure;BME280_temperature;BME280_humidity;BME280_pressure;Samples;Min_cycle;Max_cycle;Signal;HPM_P1;HPM_P2
2021/10/21 00:01:12;;;;;;;;;;;15.50;99.90;;;;;;1833508;77;20229;-74
2021/10/21 00:03:39;;;;;;;;;;;15.50;99.90;;;;;;1830300;78;20470;-75
2021/10/21 00:06:06;;;;;;;;;;;15.40;99.90;;;;;;1835562;77;20224;-74
2021/10/21 00:08:33;;;;;;;;;;;15.40;99.90;;;;;;1840209;76;20129;-74
2021/10/21 00:10:59;;;;;;;;;;;15.40;99.90;;;;;;1838660;76;20173;-77
2021/10/21 00:13:26;;;;;;;;;;;15.40;99.90;;;;;;1841986;76;20207;-74
2021/10/21 00:15:53;;;;;;;;;;;15.40;99.90;;;;;;1842149;76;20160;-75
2021/10/21 00:18:20;;;;;;;;;;;15.30;99.90;;;;;;1841100;76;20216;-75
2021/10/21 00:20:47;;;;;;;;;;;15.30;99.90;;;;;;1837526;76;20452;-75
2021/10/21 00:23:14;;;;;;;;;;;15.30;99.90;;;;;;1838726;77;20564;-74
2021/10/21 00:25:40;;;;;;;;;;;15.30;99.90;;;;;;1838128;76;20185;-73
2021/10/21 00:28:07;;;;;;;;;;;15.30;99.90;;;;;;1837597;76;20397;-75
2021/10/21 00:30:34;;;;;;;;;;;15.30;99.90;;;;;;1839919;77;20219;-75
2021/10/21 00:33:01;;;;;;;;;;;15.30;99.90;;;;;;1839377;76;20520;-77
2021/10/21 00:35:28;;;;;;;;;;;15.20;99.90;;;;;;1836612;76;20201;-77
2021/10/21 00:37:54;;;;;;;;;;;15.20;99.90;;;;;;1839295;76;20148;-75
2021/10/21 00:40:22;;;;;;;;;;;15.20;99.90;;;;;;1838054;77;20205;-76
2021/10/21 00:42:50;;;;;;;;;;;15.30;99.90;;;;;;1839015;76;20259;-76
2021/10/21 00:45:16;;;;;;;;;;;15.30;99.90;;;;;;1840390;77;20403;-74
2021/10/21 00:47:43;;;;;;;;;;;15.30;99.90;;;;;;1837454;77;20172;-75
2021/10/21 00:50:10;;;;;;;;;;;15.30;99.90;;;;;;1840609;77;20189;-75
2021/10/21 00:52:37;;;;;;;;;;;15.30;99.90;;;;;;1840146;76;20629;-75
2021/10/21 00:55:04;;;;;;;;;;;15.30;99.90;;;;;;1835967;76;20476;-75
2021/10/21 00:57:31;;;;;;;;;;;15.30;99.90;;;;;;1840184;76;20182;-75
2021/10/21 00:59:58;;;;;;;;;;;15.30;99.90;;;;;;1838944;76;20183;-76
2021/10/21 01:02:25;;;;;;;;;;;15.30;99.90;;;;;;1837657;77;20519;-77
2021/10/21 01:04:51;;;;;;;;;;;15.20;99.90;;;;;;1838845;77;20193;-76
2021/10/21 01:07:18;;;;;;;;;;;15.30;99.90;;;;;;1839299;77;20541;-77
2021/10/21 01:09:45;;;;;;;;;;;15.30;99.90;;;;;;1839706;76;20189;-77
2021/10/21 01:12:13;;;;;;;;;;;15.30;99.90;;;;;;1841352;77;20161;-75
2021/10/21 01:14:42;;;;;;;;;;;15.20;99.90;;;;;;1841696;76;20445;-75
2021/10/21 01:17:09;;;;;;;;;;;15.20;99.90;;;;;;1834331;76;20129;-75
2021/10/21 01:19:36;;;;;;;;;;;15.10;99.90;;;;;;1836818;77;20183;-75
2021/10/21 01:22:02;;;;;;;;;;;15.00;99.90;;;;;;1844625;76;20404;-75
2021/10/21 01:24:29;;;;;;;;;;;15.00;99.90;;;;;;1840935;76;20185;-75
2021/10/21 01:26:56;;;;;;;;;;;15.00;99.90;;;;;;1838593;76;20156;-75
2021/10/21 01:29:24;;;;;;;;;;;15.00;99.90;;;;;;1837659;77;20216;-76
2021/10/21 01:31:52;;;;;;;;;;;15.00;99.90;;;;;;1841149;76;20128;-76
2021/10/21 01:34:19;;;;;;;;;;;14.90;99.90;;;;;;1840659;77;20179;-75
2021/10/21 01:36:50;;;;;;;;;;;14.90;99.90;;;;;;1840413;76;20178;-75
2021/10/21 01:39:17;;;;;;;;;;;14.90;99.90;;;;;;1837619;77;20208;-75
2021/10/21 01:41:44;;;;;;;;;;;14.90;99.90;;;;;;1835488;76;20219;-74
2021/10/21 01:44:11;;;;;;;;;;;14.80;99.90;;;;;;1841615;76;20160;-74
2021/10/21 01:46:39;;;;;;;;;;;14.80;99.90;;;;;;1837947;77;20196;-74
2021/10/21 01:49:05;;;;;;;;;;;14.70;99.90;;;;;;1836693;77;20456;-75
2021/10/21 01:51:32;;;;;;;;;;;14.80;99.90;;;;;;1837001;77;20452;-74
2021/10/21 01:53:59;;;;;;;;;;;14.80;99.90;;;;;;1836539;77;20263;-75
2021/10/21 01:56:26;;;;;;;;;;;14.80;99.90;;;;;;1838814;77;20171;-75
2021/10/21 01:58:53;;;;;;;;;;;14.80;99.90;;;;;;1842459;77;20191;-75
2021/10/21 02:01:19;;;;;;;;;;;14.70;99.90;;;;;;1843518;76;20212;-75
2021/10/21 02:03:46;;;;;;;;;;;14.70;99.90;;;;;;1837143;77;20965;-75
2021/10/21 02:06:14;;;;;;;;;;;14.70;99.90;;;;;;1840043;76;20216;-75
2021/10/21 02:08:41;;;;;;;;;;;14.70;99.90;;;;;;1838392;76;20224;-76
2021/10/21 02:11:08;;;;;;;;;;;14.60;99.90;;;;;;1837866;76;20440;-75
2021/10/21 02:13:34;;;;;;;;;;;14.70;99.90;;;;;;1832426;77;20152;-75
2021/10/21 02:16:01;;;;;;;;;;;14.70;99.90;;;;;;1835238;77;20486;-75
2021/10/21 02:18:28;;;;;;;;;;;14.70;99.90;;;;;;1837726;77;20175;-75
2021/10/21 02:20:55;;;;;;;;;;;14.70;99.90;;;;;;1839673;77;20196;-74
2021/10/21 02:23:22;;;;;;;;;;;14.70;99.90;;;;;;1839090;77;20424;-74
2021/10/21 02:25:48;;;;;;;;;;;14.80;99.90;;;;;;1839795;76;20227;-74
2021/10/21 02:28:15;;;;;;;;;;;14.90;99.90;;;;;;1838693;76;20435;-77
2021/10/21 02:30:42;;;;;;;;;;;14.90;99.90;;;;;;1840495;77;20215;-75
2021/10/21 02:33:09;;;;;;;;;;;15.00;99.90;;;;;;1837869;76;20835;-74
2021/10/21 02:35:36;;;;;;;;;;;15.00;99.90;;;;;;1842064;76;20174;-75
2021/10/21 02:38:03;;;;;;;;;;;15.00;99.90;;;;;;1844760;76;20123;-74
2021/10/21 02:40:30;;;;;;;;;;;15.00;99.90;;;;;;1837958;77;20469;-74
2021/10/21 02:42:56;;;;;;;;;;;15.00;99.90;;;;;;1835696;76;20131;-75
2021/10/21 02:45:23;;;;;;;;;;;15.00;99.90;;;;;;1835943;77;20233;-74
2021/10/21 02:47:50;;;;;;;;;;;15.10;99.90;;;;;;1837058;76;20187;-74
2021/10/21 02:50:17;;;;;;;;;;;15.00;99.90;;;;;;1838113;77;20130;-75
2021/10/21 02:52:44;;;;;;;;;;;14.90;99.90;;;;;;1859498;74;20288;-73
2021/10/21 02:55:10;;;;;;;;;;;15.00;99.90;;;;;;1931027;73;20203;-73
2021/10/21 02:57:37;;;;;;;;;;;15.00;99.90;;;;;;1936534;73;20206;-73
2021/10/21 03:00:05;;;;;;;;;;;15.00;99.90;;;;;;1934468;72;20171;-73
2021/10/21 03:02:32;;;;;;;;;;;15.00;99.90;;;;;;1932594;73;20263;-72
2021/10/21 03:04:59;;;;;;;;;;;15.00;99.90;;;;;;1934720;73;20161;-73
2021/10/21 03:07:26;;;;;;;;;;;15.00;99.90;;;;;;1930762;74;20317;-73
2021/10/21 03:09:53;;;;;;;;;;;15.00;99.90;;;;;;1930999;73;20367;-73
2021/10/21 03:12:20;;;;;;;;;;;15.00;99.90;;;;;;1929728;73;20108;-73
2021/10/21 03:14:46;;;;;;;;;;;15.00;99.90;;;;;;1930370;73;20256;-72
2021/10/21 03:17:14;;;;;;;;;;;15.00;99.90;;;;;;1932063;74;20124;-74
2021/10/21 03:19:41;;;;;;;;;;;15.00;99.90;;;;;;1932079;74;20226;-74
2021/10/21 03:22:07;;;;;;;;;;;15.00;99.90;;;;;;1931160;74;20150;-74
2021/10/21 03:24:34;;;;;;;;;;;14.90;99.90;;;;;;1927039;74;20210;-72
2021/10/21 03:27:01;;;;;;;;;;;14.90;99.90;;;;;;1928882;74;20170;-72
2021/10/21 03:29:28;;;;;;;;;;;15.00;99.90;;;;;;1930397;74;20154;-72
2021/10/21 03:31:54;;;;;;;;;;;15.00;99.90;;;;;;1932157;74;20210;-72
2021/10/21 03:34:21;;;;;;;;;;;15.00;99.90;;;;;;1930366;74;20167;-72
2021/10/21 03:36:48;;;;;;;;;;;15.00;99.90;;;;;;1932291;74;20167;-72
2021/10/21 03:39:15;;;;;;;;;;;15.00;99.90;;;;;;1929259;74;20207;-72
2021/10/21 03:41:42;;;;;;;;;;;15.00;99.90;;;;;;1931824;73;20147;-74
2021/10/21 03:44:09;;;;;;;;;;;15.00;99.90;;;;;;1926029;74;20173;-73
2021/10/21 03:46:37;;;;;;;;;;;15.00;99.90;;;;;;1926823;74;20214;-75
2021/10/21 03:49:03;;;;;;;;;;;15.00;99.90;;;;;;1929822;74;20199;-72
2021/10/21 03:51:30;;;;;;;;;;;14.90;99.90;;;;;;1932940;73;20133;-72
2021/10/21 03:53:57;;;;;;;;;;;14.80;99.90;;;;;;1898719;74;20157;-72
2021/10/21 03:56:24;;;;;;;;;;;14.80;99.90;;;;;;1932580;73;20159;-72
2021/10/21 03:58:51;;;;;;;;;;;14.80;99.90;;;;;;1934008;73;20111;-72
2021/10/21 04:01:17;;;;;;;;;;;14.80;99.90;;;;;;1930288;73;20230;-72
2021/10/21 04:03:44;;;;;;;;;;;14.80;99.90;;;;;;1927826;74;20107;-73
2021/10/21 04:06:11;;;;;;;;;;;14.70;99.90;;;;;;1927270;74;20427;-71
2021/10/21 04:08:38;;;;;;;;;;;14.70;99.90;;;;;;1934788;73;20168;-72
2021/10/21 04:11:05;;;;;;;;;;;14.70;99.90;;;;;;1928085;74;20260;-73
2021/10/21 04:13:31;;;;;;;;;;;14.60;99.90;;;;;;1930158;74;20206;-73
2021/10/21 04:15:58;;;;;;;;;;;14.60;99.90;;;;;;1931516;73;20168;-74
2021/10/21 04:18:25;;;;;;;;;;;14.60;99.90;;;;;;1931026;73;20164;-73
2021/10/21 04:20:52;;;;;;;;;;;14.60;99.90;;;;;;1932548;74;20213;-73
2021/10/21 04:23:18;;;;;;;;;;;14.50;99.90;;;;;;1933443;74;20405;-72
2021/10/21 04:25:45;;;;;;;;;;;14.10;99.90;;;;;;1928580;74;20166;-72
2021/10/21 04:28:12;;;;;;;;;;;14.00;99.90;;;;;;1930784;73;20513;-72
2021/10/21 04:30:39;;;;;;;;;;;13.80;99.90;;;;;;1932076;73;20206;-72
2021/10/21 04:33:06;;;;;;;;;;;13.70;99.90;;;;;;1926781;74;20177;-71
2021/10/21 04:35:33;;;;;;;;;;;13.70;99.90;;;;;;1929520;74;20167;-70
2021/10/21 04:37:59;;;;;;;;;;;13.60;99.90;;;;;;1931713;74;20128;-72
2021/10/21 04:40:26;;;;;;;;;;;13.60;99.90;;;;;;1929095;74;20212;-72
2021/10/21 04:42:53;;;;;;;;;;;13.60;99.90;;;;;;1930122;74;20511;-69
2021/10/21 04:45:20;;;;;;;;;;;13.60;99.90;;;;;;1932746;74;20430;-72
2021/10/21 04:47:48;;;;;;;;;;;13.60;99.90;;;;;;1928252;74;20822;-72
2021/10/21 04:50:15;;;;;;;;;;;13.60;99.90;;;;;;1929114;74;20201;-72
2021/10/21 04:52:42;;;;;;;;;;;13.60;99.90;;;;;;1932778;74;20170;-71
2021/10/21 04:55:09;;;;;;;;;;;13.70;99.90;;;;;;1929437;74;20159;-73
2021/10/21 04:57:36;;;;;;;;;;;13.60;99.90;;;;;;1932817;74;20125;-72
2021/10/21 05:00:03;;;;;;;;;;;13.60;99.90;;;;;;1927929;74;20469;-73
2021/10/21 05:02:30;;;;;;;;;;;13.60;99.90;;;;;;1930532;74;20399;-72
2021/10/21 05:04:57;;;;;;;;;;;13.60;99.90;;;;;;1929571;74;20187;-72
2021/10/21 05:07:24;;;;;;;;;;;13.70;99.90;;;;;;1924384;74;20447;-73
2021/10/21 05:09:50;;;;;;;;;;;13.70;99.90;;;;;;1927493;74;20252;-72
2021/10/21 05:12:17;;;;;;;;;;;13.60;99.90;;;;;;1931727;74;20440;-73
2021/10/21 05:14:44;;;;;;;;;;;13.70;99.90;;;;;;1927536;74;20127;-72
2021/10/21 05:17:11;;;;;;;;;;;13.60;99.90;;;;;;1931267;74;20253;-71
2021/10/21 05:19:38;;;;;;;;;;;13.70;99.90;;;;;;1933660;73;20234;-72
2021/10/21 05:22:04;;;;;;;;;;;13.70;99.90;;;;;;1933456;73;20111;-72
2021/10/21 05:24:31;;;;;;;;;;;13.60;99.90;;;;;;1924127;74;20261;-72
2021/10/21 05:26:58;;;;;;;;;;;13.70;99.90;;;;;;1932226;74;20181;-72
2021/10/21 05:29:26;;;;;;;;;;;13.70;99.90;;;;;;1928095;74;20176;-72
2021/10/21 05:31:53;;;;;;;;;;;13.70;99.90;;;;;;1932899;74;20404;-71
2021/10/21 05:34:20;;;;;;;;;;;13.70;99.90;;;;;;1925566;74;20160;-72
2021/10/21 05:36:48;;;;;;;;;;;13.60;99.90;;;;;;1924568;73;20231;-71
2021/10/21 05:39:15;;;;;;;;;;;13.60;99.90;;;;;;1930547;74;20115;-71
2021/10/21 05:41:42;;;;;;;;;;;13.60;99.90;;;;;;1930210;73;20211;-73
2021/10/21 05:44:09;;;;;;;;;;;13.50;99.90;;;;;;1931156;73;20426;-73
2021/10/21 05:46:36;;;;;;;;;;;13.40;99.90;;;;;;1928342;73;20193;-72
2021/10/21 05:49:03;;;;;;;;;;;13.40;99.90;;;;;;1929933;74;20530;-71
2021/10/21 05:51:30;;;;;;;;;;;13.30;99.90;;;;;;1929193;73;20122;-71
2021/10/21 05:53:57;;;;;;;;;;;13.30;99.90;;;;;;1884903;74;20166;-71
2021/10/21 05:56:24;;;;;;;;;;;13.30;99.90;;;;;;1930088;73;20117;-71
2021/10/21 05:58:50;;;;;;;;;;;13.20;99.90;;;;;;1933157;73;20178;-72
2021/10/21 06:01:18;;;;;;;;;;;13.10;99.90;;;;;;1931366;73;20161;-72
2021/10/21 06:03:45;;;;;;;;;;;13.00;99.90;;;;;;1925389;74;20212;-71
2021/10/21 06:06:12;;;;;;;;;;;13.10;99.90;;;;;;1929729;74;20193;-72
2021/10/21 06:08:39;;;;;;;;;;;13.00;99.90;;;;;;1931210;74;20185;-72
2021/10/21 06:11:08;;;;;;;;;;;12.90;99.90;;;;;;1928945;74;20282;-70
2021/10/21 06:13:35;;;;;;;;;;;12.90;99.90;;;;;;1929928;74;20252;-71
2021/10/21 06:16:02;;;;;;;;;;;12.80;99.90;;;;;;1932024;73;20127;-72
2021/10/21 06:18:29;;;;;;;;;;;12.90;99.90;;;;;;1925868;74;20182;-72
2021/10/21 06:20:56;;;;;;;;;;;12.80;99.90;;;;;;1932158;74;20383;-71
2021/10/21 06:23:24;;;;;;;;;;;12.80;99.90;;;;;;1927875;73;20187;-71
2021/10/21 06:25:51;;;;;;;;;;;12.70;99.90;;;;;;1928429;73;20332;-71
2021/10/21 06:28:17;;;;;;;;;;;12.70;99.90;;;;;;1933600;73;20218;-72
2021/10/21 06:30:46;;;;;;;;;;;12.60;99.90;;;;;;1882300;75;20795;-71
2021/10/21 06:33:13;;;;;;;;;;;12.60;99.90;;;;;;1877723;76;20165;-71
2021/10/21 06:35:43;;;;;;;;;;;12.60;99.90;;;;;;1901681;74;20246;-72
2021/10/21 06:38:10;;;;;;;;;;;12.60;99.90;;;;;;1897182;74;20132;-70
2021/10/21 06:40:37;;;;;;;;;;;12.70;99.90;;;;;;1900121;74;20532;-71
2021/10/21 06:43:04;;;;;;;;;;;12.50;99.90;;;;;;1897200;74;20162;-72
2021/10/21 06:45:31;;;;;;;;;;;12.50;99.90;;;;;;1894821;74;20167;-72
2021/10/21 06:47:58;;;;;;;;;;;12.50;99.90;;;;;;1899224;74;20464;-72
2021/10/21 06:50:25;;;;;;;;;;;12.50;99.90;;;;;;1900924;74;20207;-71
2021/10/21 06:52:52;;;;;;;;;;;12.50;99.90;;;;;;1898894;74;20259;-75
2021/10/21 06:55:19;;;;;;;;;;;12.40;99.90;;;;;;1898799;74;20129;-72
2021/10/21 06:57:49;;;;;;;;;;;12.20;99.90;;;;;;1903851;74;20194;-72
2021/10/21 07:00:16;;;;;;;;;;;12.20;99.90;;;;;;1901440;74;20179;-72
2021/10/21 07:02:42;;;;;;;;;;;12.10;99.90;;;;;;1896621;74;20195;-72
2021/10/21 07:05:10;;;;;;;;;;;12.00;99.90;;;;;;1899386;75;20173;-72
2021/10/21 07:07:37;;;;;;;;;;;12.00;99.90;;;;;;1896651;74;20271;-72
2021/10/21 07:10:09;;;;;;;;;;;12.00;99.90;;;;;;1903099;75;20251;-72
2021/10/21 07:12:33;;;;;;;;;;;12.10;99.90;;;;;;1899059;74;20124;-73
2021/10/21 07:15:00;;;;;;;;;;;12.00;99.90;;;;;;1897550;75;20209;-72
2021/10/21 07:17:27;;;;;;;;;;;12.00;99.90;;;;;;1899498;74;20808;-72
2021/10/21 07:19:54;;;;;;;;;;;12.10;99.90;;;;;;1901145;74;20416;-72
2021/10/21 07:22:21;;;;;;;;;;;12.20;99.90;;;;;;1899772;74;20114;-72
2021/10/21 07:24:48;;;;;;;;;;;12.20;99.90;;;;;;1900447;75;20269;-72
2021/10/21 07:27:15;;;;;;;;;;;12.30;99.90;;;;;;1900916;75;20166;-72
2021/10/21 07:29:42;;;;;;;;;;;12.30;99.90;;;;;;1898505;75;20148;-71
2021/10/21 07:32:09;;;;;;;;;;;12.30;99.90;;;;;;1901447;74;20122;-71
2021/10/21 07:34:36;;;;;;;;;;;12.30;99.90;;;;;;1897265;75;20172;-71
2021/10/21 07:37:03;;;;;;;;;;;12.40;99.90;;;;;;1901978;74;20205;-71
2021/10/21 07:39:30;;;;;;;;;;;12.40;99.90;;;;;;1900414;75;20126;-73
2021/10/21 07:42:00;;;;;;;;;;;12.30;99.90;;;;;;1900839;75;20165;-71
2021/10/21 07:44:25;;;;;;;;;;;12.40;99.90;;;;;;1898808;75;20165;-72
2021/10/21 07:46:52;;;;;;;;;;;12.40;99.90;;;;;;1902338;74;20134;-72
2021/10/21 07:49:19;;;;;;;;;;;12.30;99.90;;;;;;1900566;74;20167;-72
2021/10/21 07:51:46;;;;;;;;;;;12.30;99.90;;;;;;1898571;74;20238;-71
2021/10/21 07:54:13;;;;;;;;;;;12.30;99.90;;;;;;1899668;75;20481;-74
2021/10/21 07:56:40;;;;;;;;;;;12.30;99.90;;;;;;1899427;75;20176;-72
2021/10/21 07:59:06;;;;;;;;;;;12.30;99.90;;;;;;1903541;75;21087;-72
2021/10/21 08:01:33;;;;;;;;;;;12.20;99.90;;;;;;1899549;75;20186;-72
2021/10/21 08:04:00;;;;;;;;;;;12.20;99.90;;;;;;1900295;75;20124;-73
2021/10/21 08:06:29;;;;;;;;;;;12.20;99.90;;;;;;1898682;75;20172;-72
2021/10/21 08:08:56;;;;;;;;;;;12.30;99.90;;;;;;1901407;75;20174;-72
2021/10/21 08:11:23;;;;;;;;;;;12.30;99.90;;;;;;1900311;75;20184;-72
2021/10/21 08:13:49;;;;;;;;;;;12.30;99.90;;;;;;1901030;74;20177;-72
2021/10/21 08:16:16;;;;;;;;;;;12.20;99.90;;;;;;1934764;73;20126;-72
2021/10/21 08:18:43;;;;;;;;;;;12.30;99.90;;;;;;1928504;73;20177;-72
2021/10/21 08:21:10;;;;;;;;;;;12.30;99.90;;;;;;1900866;74;20166;-71
2021/10/21 08:23:37;;;;;;;;;;;12.20;99.90;;;;;;1919048;73;20202;-71
2021/10/21 08:26:04;;;;;;;;;;;12.20;99.90;;;;;;1901618;74;20181;-71
2021/10/21 08:28:31;;;;;;;;;;;12.30;99.90;;;;;;1897410;74;20115;-71
2021/10/21 08:30:57;;;;;;;;;;;12.30;99.90;;;;;;1897774;75;20177;-71
2021/10/21 08:33:24;;;;;;;;;;;12.10;99.90;;;;;;1899998;74;20146;-73
2021/10/21 08:35:51;;;;;;;;;;;12.10;99.90;;;;;;1902048;75;20163;-71
2021/10/21 08:38:18;;;;;;;;;;;12.20;99.90;;;;;;1902282;75;20296;-73
2021/10/21 08:40:45;;;;;;;;;;;12.20;99.90;;;;;;1902373;75;20227;-72
2021/10/21 08:43:12;;;;;;;;;;;12.20;99.90;;;;;;1897065;75;20393;-72
2021/10/21 08:45:39;;;;;;;;;;;12.20;99.90;;;;;;1899307;75;20120;-72
2021/10/21 08:48:07;;;;;;;;;;;12.20;99.90;;;;;;1898129;75;20551;-72
2021/10/21 08:50:34;;;;;;;;;;;12.10;99.90;;;;;;1904308;75;20530;-71
2021/10/21 08:53:02;;;;;;;;;;;12.20;99.90;;;;;;1899419;74;20413;-73
2021/10/21 08:55:29;;;;;;;;;;;12.00;99.90;;;;;;1900082;74;20107;-72
2021/10/21 08:57:56;;;;;;;;;;;12.00;99.90;;;;;;1897956;75;20135;-73
2021/10/21 09:00:23;;;;;;;;;;;12.20;99.90;;;;;;1898467;75;20128;-72
2021/10/21 09:02:59;;;;;;;;;;;12.30;99.90;;;;;;1899952;74;20177;-72
2021/10/21 09:05:30;;;;;;;;;;;12.30;99.90;;;;;;1935868;73;20198;-73
2021/10/21 09:08:04;;;;;;;;;;;12.20;99.90;;;;;;1938434;73;20170;-72
2021/10/21 09:10:31;;;;;;;;;;;12.20;99.90;;;;;;1932068;74;20163;-73
2021/10/21 09:12:59;;;;;;;;;;;12.30;99.90;;;;;;1931684;73;20171;-73
2021/10/21 09:15:26;;;;;;;;;;;12.30;99.90;;;;;;1931757;73;20587;-73
2021/10/21 09:17:55;;;;;;;;;;;12.40;99.90;;;;;;1933392;73;20163;-72
2021/10/21 09:20:37;;;;;;;;;;;12.50;99.90;;;;;;1926853;74;20124;-72
2021/10/21 09:23:01;;;;;;;;;;;12.50;99.90;;;;;;1932175;73;20116;-72
2021/10/21 09:25:30;;;;;;;;;;;12.40;99.90;;;;;;1928973;73;20204;-72
2021/10/21 09:27:58;;;;;;;;;;;12.30;99.90;;;;;;1937111;73;20209;-72
2021/10/21 09:30:27;;;;;;;;;;;12.30;99.90;;;;;;1927408;73;20116;-72
2021/10/21 09:32:55;;;;;;;;;;;12.30;99.90;;;;;;1930186;74;20178;-72
2021/10/21 09:35:23;;;;;;;;;;;12.30;99.90;;;;;;1930853;74;20442;-72
2021/10/21 09:37:51;;;;;;;;;;;12.20;99.90;;;;;;1928173;74;20116;-72
2021/10/21 09:40:29;;;;;;;;;;;12.30;99.90;;;;;;1927991;74;20207;-73
2021/10/21 09:43:00;;;;;;;;;;;12.30;99.90;;;;;;1929120;74;20169;-74
2021/10/21 09:45:34;;;;;;;;;;;12.30;99.90;;;;;;1926832;74;20211;-74
2021/10/21 09:48:02;;;;;;;;;;;12.40;99.90;;;;;;1899114;74;20224;-74
2021/10/21 09:50:38;;;;;;;;;;;12.50;99.90;;;;;;1886041;74;20225;-72
2021/10/21 09:53:22;;;;;;;;;;;12.50;99.90;;;;;;1928534;73;20168;-74
2021/10/21 09:55:53;;;;;;;;;;;12.40;99.90;;;;;;1928380;74;20142;-71
2021/10/21 09:58:24;;;;;;;;;;;12.50;99.90;;;;;;1930122;74;20181;-72
2021/10/21 10:00:51;;;;;;;;;;;12.50;99.90;;;;;;1926958;73;20372;-73
2021/10/21 10:03:19;;;;;;;;;;;12.60;99.90;;;;;;1932848;74;20452;-72
2021/10/21 10:05:50;;;;;;;;;;;12.70;99.90;;;;;;1901477;74;20171;-73
2021/10/21 10:08:18;;;;;;;;;;;12.80;99.90;;;;;;1913155;73;20207;-72
2021/10/21 10:10:46;;;;;;;;;;;12.70;99.90;;;;;;1897679;74;20226;-73
2021/10/21 10:13:13;;;;;;;;;;;12.70;99.90;;;;;;1893217;74;20453;-72
2021/10/21 10:15:43;;;;;;;;;;;12.60;99.90;;;;;;1897963;74;20238;-72
2021/10/21 10:18:10;;;;;;;;;;;12.60;99.90;;;;;;1899119;74;20239;-75
2021/10/21 10:20:38;;;;;;;;;;;12.60;99.90;;;;;;1900614;75;20806;-71
2021/10/21 10:23:05;;;;;;;;;;;12.70;99.90;;;;;;1901177;74;20444;-72
2021/10/21 10:25:34;;;;;;;;;;;12.60;99.90;;;;;;1898112;75;20462;-72
2021/10/21 10:28:01;;;;;;;;;;;12.70;99.90;;;;;;1899120;75;20181;-73
2021/10/21 10:30:42;;;;;;;;;;;12.70;99.90;;;;;;1898346;75;20185;-72
2021/10/21 10:33:09;;;;;;;;;;;12.80;99.90;;;;;;1899068;74;20190;-72
2021/10/21 10:35:44;;;;;;;;;;;12.70;99.90;;;;;;1898261;75;20149;-72
2021/10/21 10:38:08;;;;;;;;;;;12.70;99.90;;;;;;1898585;74;20156;-72
2021/10/21 10:40:36;;;;;;;;;;;12.70;99.90;;;;;;1896694;75;20165;-72
2021/10/21 10:43:04;;;;;;;;;;;12.70;99.90;;;;;;1897021;75;20156;-72
2021/10/21 10:45:40;;;;;;;;;;;12.70;99.90;;;;;;1898561;75;20477;-73
2021/10/21 10:48:07;;;;;;;;;;;12.80;99.90;;;;;;1898421;74;20173;-73
2021/10/21 10:50:36;;;;;;;;;;;12.80;99.90;;;;;;1898125;75;20595;-73
2021/10/21 10:53:07;;;;;;;;;;;13.00;99.90;;;;;;1904101;74;20172;-72
2021/10/21 10:55:35;;;;;;;;;;;13.00;99.90;;;;;;1899228;74;20122;-72
2021/10/21 10:58:03;;;;;;;;;;;12.80;99.90;;;;;;1896977;74;20134;-71
2021/10/21 11:00:51;;;;;;;;;;;12.90;99.90;;;;;;1899369;74;20239;-73
2021/10/21 11:03:22;;;;;;;;;;;12.80;99.90;;;;;;1899137;74;20209;-72
2021/10/21 11:05:51;;;;;;;;;;;12.90;99.90;;;;;;1899130;75;20541;-72
2021/10/21 11:08:18;;;;;;;;;;;12.80;99.90;;;;;;1902958;75;20179;-72
2021/10/21 11:10:46;;;;;;;;;;;12.70;99.90;;;;;;1898160;75;20217;-73
2021/10/21 11:13:20;;;;;;;;;;;12.40;99.90;;;;;;1897686;74;20209;-72
2021/10/21 11:15:48;;;;;;;;;;;12.30;99.90;;;;;;1900943;75;20217;-73
2021/10/21 11:18:26;;;;;;;;;;;12.40;99.90;;;;;;1898971;75;20124;-74
2021/10/21 11:20:55;;;;;;;;;;;12.30;99.90;;;;;;1898882;75;20218;-72
2021/10/21 11:23:29;;;;;;;;;;;12.20;99.90;;;;;;1900609;74;20239;-74
2021/10/21 11:26:01;;;;;;;;;;;12.30;99.90;;;;;;1900520;75;20165;-73
2021/10/21 11:28:32;;;;;;;;;;;12.40;99.90;;;;;;1900380;75;20165;-72
2021/10/21 11:31:00;;;;;;;;;;;12.40;99.90;;;;;;1895428;75;20204;-72
2021/10/21 11:33:27;;;;;;;;;;;12.50;99.90;;;;;;1924539;74;20127;-73
2021/10/21 11:35:55;;;;;;;;;;;12.60;99.90;;;;;;1929307;74;20212;-73
2021/10/21 11:38:22;;;;;;;;;;;12.80;99.90;;;;;;1927565;74;20112;-73
2021/10/21 11:40:53;;;;;;;;;;;12.80;99.90;;;;;;1928263;74;20155;-73
2021/10/21 11:43:25;;;;;;;;;;;12.90;99.90;;;;;;1927655;74;20392;-74
2021/10/21 11:45:56;;;;;;;;;;;12.90;99.90;;;;;;1928814;74;20171;-74
2021/10/21 11:48:24;;;;;;;;;;;12.80;99.90;;;;;;1935948;74;20215;-73
2021/10/21 11:50:52;;;;;;;;;;;12.70;99.90;;;;;;1929955;74;20108;-72
2021/10/21 11:53:19;;;;;;;;;;;12.60;99.90;;;;;;1926807;74;20277;-73
2021/10/21 11:55:47;;;;;;;;;;;12.60;99.90;;;;;;1933260;73;20176;-72
2021/10/21 11:58:15;;;;;;;;;;;12.70;99.90;;;;;;1916409;73;20173;-77
2021/10/21 12:00:43;;;;;;;;;;;12.80;99.90;;;;;;1911671;73;20177;-73
2021/10/21 12:03:11;;;;;;;;;;;12.70;99.90;;;;;;1897785;75;20189;-73
2021/10/21 12:05:40;;;;;;;;;;;12.40;99.90;;;;;;1896999;74;20115;-73
2021/10/21 12:08:07;;;;;;;;;;;12.20;99.90;;;;;;1935476;72;20171;-73
2021/10/21 12:10:36;;;;;;;;;;;11.80;99.90;;;;;;1935461;73;20179;-73
2021/10/21 12:13:04;;;;;;;;;;;11.60;99.90;;;;;;1931344;73;20253;-73
2021/10/21 12:15:32;;;;;;;;;;;11.40;99.90;;;;;;1934601;73;20184;-74
2021/10/21 12:18:01;;;;;;;;;;;11.40;99.90;;;;;;1927647;74;20262;-72
2021/10/21 12:20:30;;;;;;;;;;;11.40;99.90;;;;;;1928124;74;20203;-73
2021/10/21 12:22:57;;;;;;;;;;;11.30;99.90;;;;;;1929236;74;20175;-73
2021/10/21 12:25:31;;;;;;;;;;;11.20;99.90;;;;;;1930170;74;20247;-73
2021/10/21 12:28:01;;;;;;;;;;;11.00;99.90;;;;;;1927860;73;20165;-73
2021/10/21 12:30:28;;;;;;;;;;;11.00;99.90;;;;;;1927519;74;20153;-73
2021/10/21 12:33:08;;;;;;;;;;;11.10;99.90;;;;;;1930275;73;20160;-73
2021/10/21 12:35:35;;;;;;;;;;;10.90;99.90;;;;;;1932778;73;20198;-73
2021/10/21 12:38:05;;;;;;;;;;;10.80;99.90;;;;;;1928589;74;20495;-72
2021/10/21 12:40:37;;;;;;;;;;;10.90;99.90;;;;;;1930883;73;20131;-72
2021/10/21 12:43:25;;;;;;;;;;;10.90;99.90;;;;;;1912066;73;20175;-73
2021/10/21 12:45:48;;;;;;;;;;;10.80;99.90;;;;;;1900258;74;20426;-73
2021/10/21 12:48:32;;;;;;;;;;;10.80;99.90;;;;;;1902362;74;20159;-71
2021/10/21 12:51:10;;;;;;;;;;;10.80;99.90;;;;;;1899721;74;20196;-72
2021/10/21 12:53:36;;;;;;;;;;;11.00;99.90;;;;;;1899064;74;20128;-73
2021/10/21 12:56:15;;;;;;;;;;;10.80;99.90;;;;;;1902685;74;20188;-72
2021/10/21 12:58:42;;;;;;;;;;;10.80;99.90;;;;;;1899088;74;20174;-72
2021/10/21 13:01:09;;;;;;;;;;;11.10;99.90;;;;;;1898854;74;20155;-72
2021/10/21 13:03:45;;;;;;;;;;;11.00;99.90;;;;;;1899438;75;20165;-73
2021/10/21 13:06:08;;;;;;;;;;;11.10;99.90;;;;;;1898729;74;20177;-72
2021/10/21 13:08:35;;;;;;;;;;;11.20;99.90;;;;;;1899387;74;20102;-73
2021/10/21 13:11:04;;;;;;;;;;;11.00;99.90;;;;;;1904425;75;20303;-72
2021/10/21 13:13:33;;;;;;;;;;;11.20;99.90;;;;;;1899909;74;20494;-72
2021/10/21 13:16:03;;;;;;;;;;;11.20;99.90;;;;;;1897194;74;20193;-72
2021/10/21 13:18:31;;;;;;;;;;;11.20;99.90;;;;;;1901921;74;20242;-71
2021/10/21 13:20:58;;;;;;;;;;;11.20;99.90;;;;;;1903989;75;20499;-71
2021/10/21 13:23:25;;;;;;;;;;;11.30;99.90;;;;;;1934566;72;20355;-72
2021/10/21 13:25:52;;;;;;;;;;;11.10;99.90;;;;;;1889758;74;20217;-72
2021/10/21 13:28:19;;;;;;;;;;;11.20;99.90;;;;;;1924377;73;20170;-72
2021/10/21 13:30:46;;;;;;;;;;;11.10;99.90;;;;;;1930557;72;20274;-72
2021/10/21 13:33:13;;;;;;;;;;;11.20;99.90;;;;;;1903325;73;20185;-72
2021/10/21 13:35:41;;;;;;;;;;;11.30;99.90;;;;;;1930554;72;20897;-72
2021/10/21 13:38:08;;;;;;;;;;;11.20;99.90;;;;;;1904998;73;20207;-70
2021/10/21 13:40:35;;;;;;;;;;;11.30;99.90;;;;;;1930871;74;20163;-71
2021/10/21 13:43:02;;;;;;;;;;;11.30;99.90;;;;;;1928993;74;20131;-71
2021/10/21 13:45:28;;;;;;;;;;;11.30;99.90;;;;;;1934158;73;20163;-71
2021/10/21 13:47:55;;;;;;;;;;;11.20;99.90;;;;;;1928628;73;20611;-71
2021/10/21 13:50:22;;;;;;;;;;;11.00;99.90;;;;;;1933537;73;20128;-71
2021/10/21 13:52:54;;;;;;;;;;;11.00;99.90;;;;;;1928387;74;20489;-71
2021/10/21 13:55:21;;;;;;;;;;;11.10;99.90;;;;;;1930094;74;20141;-71
2021/10/21 13:57:48;;;;;;;;;;;11.10;99.90;;;;;;1928606;74;20122;-70
2021/10/21 14:00:15;;;;;;;;;;;11.10;99.90;;;;;;1931605;74;20185;-72
2021/10/21 14:02:42;;;;;;;;;;;11.00;99.90;;;;;;1929148;73;20182;-72
2021/10/21 14:05:09;;;;;;;;;;;11.20;99.90;;;;;;1934711;74;20202;-71
2021/10/21 14:07:36;;;;;;;;;;;11.30;99.90;;;;;;1928451;74;20196;-71
2021/10/21 14:10:03;;;;;;;;;;;11.20;99.90;;;;;;1927667;74;20524;-70
2021/10/21 14:12:30;;;;;;;;;;;11.30;99.90;;;;;;1929567;74;20240;-72
2021/10/21 14:14:57;;;;;;;;;;;11.30;99.90;;;;;;1933398;73;20116;-70
2021/10/21 14:17:23;;;;;;;;;;;11.20;99.90;;;;;;1928534;74;20181;-71
2021/10/21 14:19:52;;;;;;;;;;;11.30;99.90;;;;;;1935249;73;20154;-71